Accueil
METAR-TAF:

METAR-TAF

Aéroports :

Trévise, Italie

latitude: 45-41N, longitude: 012-06E, altitude: 45 m

Observation

Le bulletin a été fait il y a 1 heure et 2 minutes, à 22:55 UTC
Température 7°C
Humidité 81%
Pression 1002 hPa
Visibilité 10 km ou plus
Nuages fragmentés à une hauteur de 7000 ft

METAR: LIPS 272255Z /////KT 9999 BKN070 07/04 Q1002 RMK BKN VIS MIN 9999 WIND THR26 00000KT WIND THR08 00000KT BLU

Heure: 00:57 (23:57 UTC)

Prévision

Le bulletin a été fait il y a 57 minutes, à 23:00 UTC
Prévision valable du 28 à 00 UTC au 28 à 09 UTC
Vent 8 kt de ouest/sud-ouest
Visibilité 10 km ou plus
Nuages fragmentés à une hauteur de 7000 ft
Evoluant progressivement
du 28 à 00 UTC au 28 à 02 UTC
Visibilité 10 km ou plus
pas de nuages en-dessous de 1500 mètres et pas de cumulonimbus.

TAF: LIPS 272300Z 2800/2809 24008KT 9999 BKN070 BECMG 2800/2802 CAVOK

Observations et prévisions météorologiques de plus de 4000 aéroports (messages METAR et TAF).

Les stations disponibles sont représentées par des disques jaunes et rouges sur la carte.

Passer la souris dessus pour voir le nom de la station.

Cliquer dessus pour voir les observations et prévisions météorologiques.

Pour changer de carte: cliquez sur les boutons verts avec une croix noire pour zoomer, sur le bouton vert avec un tiret pour effectuer un zoom arrière, ou sur les flèches vertes pour les cartes adjacentes.


METAR-TAF: